createdAt,value
2022-12-18T00:00:49.585Z,9.85
2022-12-18T00:01:51.405Z,11.00
2022-12-18T00:02:53.219Z,10.35
2022-12-18T00:03:56.793Z,9.98
2022-12-18T00:05:01.423Z,9.55
2022-12-18T00:06:03.571Z,9.30
2022-12-18T00:07:05.281Z,10.25
2022-12-18T00:08:09.369Z,8.35
2022-12-18T00:09:11.534Z,8.33
2022-12-18T00:10:15.251Z,8.90
2022-12-18T00:11:19.517Z,8.75
2022-12-18T00:12:21.219Z,9.88
2022-12-18T00:13:22.958Z,10.32
2022-12-18T00:14:24.754Z,9.88
2022-12-18T00:15:26.472Z,10.73
2022-12-18T00:16:29.829Z,10.00
2022-12-18T00:17:31.601Z,9.90
2022-12-18T00:18:33.811Z,10.75
2022-12-18T00:19:35.530Z,10.03
2022-12-18T00:20:40.775Z,9.80
2022-12-18T00:21:44.168Z,10.32
2022-12-18T00:22:45.867Z,10.18
2022-12-18T00:23:49.145Z,9.85
2022-12-18T00:24:50.851Z,8.25
2022-12-18T00:25:52.723Z,9.02
2022-12-18T00:26:54.509Z,9.10
2022-12-18T00:27:56.259Z,8.77
2022-12-18T00:29:05.582Z,9.30
2022-12-18T00:30:08.027Z,9.43
2022-12-18T00:31:12.752Z,8.52
2022-12-18T00:32:14.557Z,9.10
2022-12-18T00:33:16.277Z,9.98
2022-12-18T00:34:18.037Z,9.05
2022-12-18T00:35:19.748Z,9.52
2022-12-18T00:36:23.892Z,8.95
2022-12-18T00:37:25.637Z,9.55
2022-12-18T00:38:27.380Z,9.53
2022-12-18T00:39:29.164Z,9.52
2022-12-18T00:40:30.904Z,8.98
2022-12-18T00:41:51.434Z,9.00
2022-12-18T00:42:59.236Z,8.65
2022-12-18T00:44:01.235Z,9.02
2022-12-18T00:45:06.425Z,10.60
2022-12-18T00:46:10.909Z,9.50
2022-12-18T00:47:12.717Z,10.13
2022-12-18T00:48:14.488Z,9.27
2022-12-18T00:49:20.752Z,9.88
2022-12-18T00:50:24.907Z,9.43
2022-12-18T00:51:27.530Z,9.55
2022-12-18T00:52:29.266Z,9.43
2022-12-18T00:53:31.004Z,9.27
2022-12-18T00:54:32.751Z,9.25
2022-12-18T00:55:35.351Z,9.38
2022-12-18T00:56:48.038Z,8.85
2022-12-18T00:57:53.210Z,8.63
2022-12-18T00:58:55.009Z,8.87
2022-12-18T00:59:56.736Z,9.63
2022-12-18T01:00:58.491Z,10.48
2022-12-18T01:02:00.391Z,9.27
2022-12-18T01:03:02.329Z,8.88
2022-12-18T01:04:04.344Z,9.57
2022-12-18T01:05:06.595Z,9.15
2022-12-18T01:06:10.205Z,10.32
2022-12-18T01:07:11.922Z,9.20
2022-12-18T01:08:13.626Z,9.77
2022-12-18T01:09:15.595Z,9.73
2022-12-18T01:10:17.335Z,9.18
2022-12-18T01:11:21.051Z,7.90
2022-12-18T01:12:22.788Z,8.82
2022-12-18T01:13:24.656Z,8.43
2022-12-18T01:14:26.387Z,8.13
2022-12-18T01:15:28.170Z,7.55
2022-12-18T01:16:29.989Z,7.97
2022-12-18T01:17:32.045Z,7.97
2022-12-18T01:18:33.872Z,7.70
2022-12-18T01:19:35.708Z,8.48
2022-12-18T01:20:39.169Z,8.27
2022-12-18T01:21:40.953Z,8.52
2022-12-18T01:22:42.731Z,8.18
2022-12-18T01:23:45.981Z,7.88
2022-12-18T01:24:47.723Z,8.33
2022-12-18T01:25:49.778Z,8.32
2022-12-18T01:26:51.524Z,8.07
2022-12-18T01:27:53.338Z,9.02
2022-12-18T01:28:59.009Z,9.85
2022-12-18T01:30:00.846Z,10.43
2022-12-18T01:31:12.454Z,9.52
2022-12-18T01:32:14.225Z,9.23
2022-12-18T01:33:16.048Z,9.40
2022-12-18T01:34:17.820Z,10.50
2022-12-18T01:35:19.540Z,9.82
2022-12-18T01:36:27.190Z,9.25
2022-12-18T01:37:29.019Z,9.02
2022-12-18T01:38:30.838Z,9.90
2022-12-18T01:39:35.751Z,8.27
2022-12-18T01:40:37.848Z,8.00
2022-12-18T01:42:09.038Z,8.80
2022-12-18T01:43:10.758Z,7.03
2022-12-18T01:44:50.173Z,7.80
2022-12-18T01:45:51.993Z,6.28
2022-12-18T01:46:53.746Z,6.35
2022-12-18T01:48:05.546Z,7.80
2022-12-18T01:49:07.372Z,6.53
2022-12-18T01:50:11.877Z,6.47
2022-12-18T01:51:13.915Z,5.85
2022-12-18T01:52:16.645Z,7.85
2022-12-18T01:53:22.307Z,7.38
2022-12-18T01:54:24.059Z,7.53
2022-12-18T01:55:29.890Z,7.10
2022-12-18T01:56:31.873Z,6.90
2022-12-18T01:57:34.127Z,8.10
2022-12-18T01:59:00.925Z,6.73
2022-12-18T02:00:07.798Z,6.95
2022-12-18T02:01:10.175Z,7.53
2022-12-18T02:02:12.865Z,6.95
2022-12-18T02:03:14.832Z,6.68
2022-12-18T02:04:28.857Z,5.55
2022-12-18T02:05:38.113Z,7.43
2022-12-18T02:06:42.644Z,6.95
2022-12-18T02:07:44.865Z,7.75
2022-12-18T02:08:46.626Z,7.13
2022-12-18T02:09:57.416Z,7.38
2022-12-18T02:11:11.630Z,6.75
2022-12-18T02:12:24.294Z,7.70
2022-12-18T02:13:59.805Z,7.22
2022-12-18T02:15:36.480Z,7.68
2022-12-18T02:16:52.328Z,6.28
2022-12-18T02:18:04.476Z,7.15
2022-12-18T02:19:20.659Z,6.65
2022-12-18T02:20:40.963Z,7.97
2022-12-18T02:21:54.802Z,6.43
2022-12-18T02:23:17.659Z,6.50
2022-12-18T02:25:17.153Z,6.90
2022-12-18T02:26:27.260Z,5.87
2022-12-18T02:27:33.409Z,7.20
2022-12-18T02:28:41.036Z,7.32
2022-12-18T02:29:54.302Z,7.95
2022-12-18T02:31:03.795Z,7.82
2022-12-18T02:32:11.535Z,8.48
2022-12-18T02:33:15.484Z,9.88
2022-12-18T02:34:19.180Z,9.43
2022-12-18T02:35:30.834Z,9.50
2022-12-18T02:36:34.728Z,8.77
2022-12-18T02:37:39.193Z,8.68
2022-12-18T02:38:42.541Z,9.25
2022-12-18T02:39:48.380Z,8.83
2022-12-18T02:40:51.894Z,9.60
2022-12-18T02:41:53.882Z,10.13
2022-12-18T02:42:56.169Z,10.52
2022-12-18T02:44:01.208Z,9.05
2022-12-18T02:45:03.063Z,7.85
2022-12-18T02:46:46.484Z,8.45
2022-12-18T02:47:50.638Z,8.20
2022-12-18T02:48:57.686Z,9.43
2022-12-18T02:50:23.572Z,9.55
2022-12-18T02:51:34.775Z,10.15
2022-12-18T02:53:10.523Z,10.50
2022-12-18T02:54:31.680Z,9.82
2022-12-18T02:55:48.468Z,8.50
2022-12-18T02:56:56.799Z,9.45
2022-12-18T02:58:15.120Z,8.65
2022-12-18T02:59:23.304Z,9.23
2022-12-18T03:00:35.476Z,10.90
2022-12-18T03:01:51.132Z,12.80
2022-12-18T03:03:02.782Z,12.80
2022-12-18T03:04:16.131Z,13.18
2022-12-18T03:05:20.129Z,11.75
2022-12-18T03:06:26.459Z,11.95
2022-12-18T03:08:00.292Z,13.88
2022-12-18T03:09:11.060Z,9.60
2022-12-18T03:10:17.554Z,10.70
2022-12-18T03:11:45.098Z,12.63
2022-12-18T03:13:00.794Z,9.17
2022-12-18T03:14:05.028Z,8.93
2022-12-18T03:15:17.203Z,7.93
2022-12-18T03:16:25.781Z,8.23
2022-12-18T03:17:30.562Z,8.23
2022-12-18T03:18:38.413Z,11.15
2022-12-18T03:19:41.859Z,17.90
2022-12-18T03:20:45.427Z,15.77
2022-12-18T03:21:50.530Z,15.40
2022-12-18T03:22:57.344Z,12.10
2022-12-18T03:23:59.624Z,11.20
2022-12-18T03:25:06.218Z,10.05
2022-12-18T03:26:11.736Z,8.35
2022-12-18T03:27:18.395Z,7.00
2022-12-18T03:28:24.063Z,7.07
2022-12-18T03:29:34.889Z,6.25
2022-12-18T03:30:40.428Z,5.82
2022-12-18T03:31:46.455Z,5.78
2022-12-18T03:32:50.963Z,5.57
2022-12-18T03:33:59.733Z,5.10
2022-12-18T03:35:05.292Z,5.38
2022-12-18T03:36:08.990Z,6.00
2022-12-18T03:37:13.770Z,6.55
2022-12-18T03:38:15.678Z,6.97
2022-12-18T03:39:17.484Z,5.47
2022-12-18T03:40:23.445Z,5.35
2022-12-18T03:41:42.534Z,5.32
2022-12-18T03:42:52.922Z,5.63
2022-12-18T03:43:54.614Z,6.30
2022-12-18T03:45:00.787Z,5.45
2022-12-18T03:46:35.806Z,5.25
2022-12-18T03:47:43.065Z,5.70
2022-12-18T03:48:58.309Z,5.20
2022-12-18T03:50:21.516Z,4.22
2022-12-18T03:51:37.347Z,3.95
2022-12-18T03:52:40.669Z,4.50
2022-12-18T03:53:54.968Z,4.32
2022-12-18T03:54:58.374Z,4.18
2022-12-18T03:56:02.554Z,3.95
2022-12-18T03:57:13.849Z,4.30
2022-12-18T03:58:20.577Z,4.80
2022-12-18T03:59:24.682Z,4.07
2022-12-18T04:00:26.696Z,4.25
2022-12-18T04:01:41.838Z,4.22
2022-12-18T04:02:49.189Z,4.35
2022-12-18T04:03:51.805Z,4.25
2022-12-18T04:04:57.291Z,4.13
2022-12-18T04:06:01.062Z,3.90
2022-12-18T04:07:04.118Z,3.42
2022-12-18T04:08:06.296Z,4.00
2022-12-18T04:09:08.589Z,4.32
2022-12-18T04:10:14.733Z,3.85
2022-12-18T04:11:16.934Z,3.90
2022-12-18T04:12:18.666Z,3.67
2022-12-18T04:13:30.659Z,3.85
2022-12-18T04:14:36.504Z,4.28
2022-12-18T04:15:39.140Z,3.90
2022-12-18T04:16:40.931Z,3.85
2022-12-18T04:17:49.587Z,3.53
2022-12-18T04:18:51.512Z,4.05
2022-12-18T04:19:53.634Z,4.00
2022-12-18T04:20:55.519Z,4.13
2022-12-18T04:21:57.544Z,3.92
2022-12-18T04:22:59.254Z,4.22
2022-12-18T04:24:01.021Z,3.80
2022-12-18T04:25:02.770Z,4.20
2022-12-18T04:26:04.623Z,4.43
2022-12-18T04:27:06.774Z,4.10
2022-12-18T04:28:08.779Z,4.05
2022-12-18T04:29:10.539Z,3.80
2022-12-18T04:30:12.665Z,3.58
2022-12-18T04:31:14.839Z,4.30
2022-12-18T04:32:16.631Z,4.18
2022-12-18T04:33:18.536Z,3.93
2022-12-18T04:34:20.250Z,3.53
2022-12-18T04:35:22.011Z,3.95
2022-12-18T04:36:23.842Z,3.95
2022-12-18T04:37:25.550Z,3.80
2022-12-18T04:38:27.296Z,3.85
2022-12-18T04:39:29.019Z,4.38
2022-12-18T04:40:30.723Z,4.53
2022-12-18T04:41:32.459Z,3.95
2022-12-18T04:42:34.236Z,3.67
2022-12-18T04:43:36.276Z,3.90
2022-12-18T04:44:38.153Z,3.88
2022-12-18T04:45:39.866Z,3.90
2022-12-18T04:46:42.607Z,3.88
2022-12-18T04:47:44.680Z,3.55
2022-12-18T04:48:47.837Z,4.07
2022-12-18T04:49:49.602Z,4.10
2022-12-18T04:50:51.326Z,3.97
2022-12-18T04:51:53.925Z,3.80
2022-12-18T04:52:56.087Z,4.07
2022-12-18T04:53:57.790Z,4.13
2022-12-18T04:54:59.535Z,4.25
2022-12-18T04:56:14.066Z,3.63
2022-12-18T04:57:15.854Z,3.28
2022-12-18T04:58:17.804Z,4.25
2022-12-18T04:59:19.579Z,4.47
2022-12-18T05:00:21.761Z,4.38
2022-12-18T05:01:23.614Z,4.38
2022-12-18T05:02:25.519Z,5.13
2022-12-18T05:03:27.513Z,4.97
2022-12-18T05:04:29.262Z,4.70
2022-12-18T05:05:31.042Z,3.90
2022-12-18T05:06:32.806Z,5.03
2022-12-18T05:07:34.638Z,5.50
2022-12-18T05:08:36.466Z,5.35
2022-12-18T05:09:38.184Z,4.63
2022-12-18T05:10:39.916Z,4.75
2022-12-18T05:11:41.639Z,4.50
2022-12-18T05:13:02.141Z,4.75
2022-12-18T05:14:04.204Z,4.57
2022-12-18T05:15:06.565Z,4.25
2022-12-18T05:16:08.875Z,4.63
2022-12-18T05:17:10.683Z,3.80
2022-12-18T05:18:12.434Z,4.30
2022-12-18T05:19:14.175Z,4.57
2022-12-18T05:20:16.130Z,4.50
2022-12-18T05:21:17.967Z,4.38
2022-12-18T05:22:19.701Z,3.92
2022-12-18T05:23:23.067Z,4.47
2022-12-18T05:24:24.960Z,4.13
2022-12-18T05:25:26.672Z,4.47
2022-12-18T05:26:28.435Z,4.47
2022-12-18T05:27:30.132Z,4.60
2022-12-18T05:28:33.782Z,4.60
2022-12-18T05:29:35.485Z,4.47
2022-12-18T05:30:37.207Z,4.57
2022-12-18T05:31:40.090Z,4.50
2022-12-18T05:32:42.222Z,4.68
2022-12-18T05:33:44.245Z,4.63
2022-12-18T05:34:46.181Z,4.70
2022-12-18T05:36:05.069Z,3.92
2022-12-18T05:37:06.817Z,3.38
2022-12-18T05:38:08.740Z,3.30
2022-12-18T05:39:10.663Z,4.05
2022-12-18T05:40:13.175Z,4.03
2022-12-18T05:41:14.992Z,3.83
2022-12-18T05:42:16.725Z,3.85
2022-12-18T05:43:21.400Z,4.20
2022-12-18T05:44:23.589Z,4.20
2022-12-18T05:45:25.328Z,4.10
2022-12-18T05:46:27.284Z,3.55
2022-12-18T05:47:29.764Z,3.88
2022-12-18T05:48:31.498Z,3.47
2022-12-18T05:49:33.217Z,3.75
2022-12-18T05:50:36.870Z,4.05
2022-12-18T05:51:38.674Z,4.65
2022-12-18T05:52:41.080Z,4.07
2022-12-18T05:53:43.792Z,3.58
2022-12-18T05:54:45.715Z,4.15
2022-12-18T05:55:48.334Z,4.45
2022-12-18T05:56:50.065Z,4.53
2022-12-18T05:57:51.797Z,4.50
2022-12-18T05:58:55.013Z,4.28
2022-12-18T05:59:56.811Z,4.05
2022-12-18T06:00:59.160Z,4.67
2022-12-18T06:02:00.994Z,4.22
2022-12-18T06:03:03.991Z,4.47
2022-12-18T06:04:05.941Z,4.40
2022-12-18T06:05:08.700Z,4.80
2022-12-18T06:06:19.466Z,6.40
2022-12-18T06:07:21.240Z,7.47
2022-12-18T06:08:23.080Z,8.25
2022-12-18T06:09:25.021Z,9.85
2022-12-18T06:10:26.759Z,9.85
2022-12-18T06:11:28.660Z,9.52
2022-12-18T06:12:30.499Z,11.77
2022-12-18T06:13:32.205Z,11.60
2022-12-18T06:14:33.913Z,14.02
2022-12-18T06:15:38.270Z,13.32
2022-12-18T06:16:40.063Z,12.95
2022-12-18T06:17:41.774Z,11.63
2022-12-18T06:18:43.511Z,8.73
2022-12-18T06:19:45.268Z,6.77
2022-12-18T06:20:54.861Z,7.03
2022-12-18T06:21:58.717Z,5.28
2022-12-18T06:23:00.807Z,4.47
2022-12-18T06:24:02.512Z,4.95
2022-12-18T06:25:05.379Z,4.13
2022-12-18T06:26:12.357Z,4.40
2022-12-18T06:27:14.142Z,3.92
2022-12-18T06:28:16.229Z,4.15
2022-12-18T06:29:17.973Z,4.45
2022-12-18T06:30:19.775Z,4.50
2022-12-18T06:31:21.570Z,3.90
2022-12-18T06:32:23.494Z,4.55
2022-12-18T06:33:29.070Z,4.30
2022-12-18T06:34:34.203Z,4.90
2022-12-18T06:35:36.336Z,4.72
2022-12-18T06:36:38.110Z,4.40
2022-12-18T06:37:40.758Z,4.72
2022-12-18T06:38:43.922Z,4.70
2022-12-18T06:39:45.780Z,4.40
2022-12-18T06:40:47.494Z,4.35
2022-12-18T06:41:49.258Z,4.45
2022-12-18T06:42:51.148Z,5.10
2022-12-18T06:43:56.836Z,5.20
2022-12-18T06:45:01.241Z,6.25
2022-12-18T06:46:04.708Z,5.47
2022-12-18T06:47:06.537Z,4.65
2022-12-18T06:48:08.280Z,5.20
2022-12-18T06:49:10.513Z,5.37
2022-12-18T06:50:13.327Z,5.40
2022-12-18T06:51:18.103Z,5.03
2022-12-18T06:52:19.860Z,4.50
2022-12-18T06:53:21.656Z,5.28
2022-12-18T06:54:23.433Z,4.03
2022-12-18T06:55:25.815Z,4.10
2022-12-18T06:56:27.773Z,4.43
2022-12-18T06:57:29.738Z,4.38
2022-12-18T06:58:31.549Z,3.83
2022-12-18T06:59:33.327Z,4.25
2022-12-18T07:00:35.268Z,4.57
2022-12-18T07:01:37.258Z,4.05
2022-12-18T07:02:39.213Z,4.43
2022-12-18T07:03:43.174Z,4.25
2022-12-18T07:04:45.323Z,4.13
2022-12-18T07:05:47.212Z,3.70
2022-12-18T07:06:49.012Z,4.10
2022-12-18T07:07:50.745Z,4.47
2022-12-18T07:08:53.830Z,4.50
2022-12-18T07:09:55.568Z,4.25
2022-12-18T07:10:57.304Z,4.50
2022-12-18T07:11:59.091Z,5.03
2022-12-18T07:13:01.157Z,4.70
2022-12-18T07:14:03.013Z,4.32
2022-12-18T07:15:05.395Z,4.57
2022-12-18T07:16:18.492Z,5.00
2022-12-18T07:17:22.761Z,4.28
2022-12-18T07:18:24.496Z,4.28
2022-12-18T07:19:26.331Z,4.32
2022-12-18T07:20:28.131Z,5.65
2022-12-18T07:21:29.938Z,6.03
2022-12-18T07:22:31.902Z,7.22
2022-12-18T07:23:35.449Z,9.10
2022-12-18T07:24:37.613Z,9.15
2022-12-18T07:25:40.426Z,9.88
2022-12-18T07:26:42.188Z,8.70
2022-12-18T07:27:43.937Z,8.10
2022-12-18T07:28:45.923Z,7.18
2022-12-18T07:29:47.683Z,6.03
2022-12-18T07:30:49.401Z,6.45
2022-12-18T07:31:51.176Z,5.73
2022-12-18T07:32:52.933Z,5.28
2022-12-18T07:33:54.973Z,5.63
2022-12-18T07:34:56.785Z,4.65
2022-12-18T07:36:04.538Z,5.47
2022-12-18T07:37:06.289Z,5.43
2022-12-18T07:38:07.984Z,4.73
2022-12-18T07:39:09.732Z,4.72
2022-12-18T07:40:12.268Z,4.80
2022-12-18T07:41:15.134Z,4.97
2022-12-18T07:42:32.120Z,4.43
2022-12-18T07:43:34.854Z,5.60
2022-12-18T07:44:37.293Z,4.87
2022-12-18T07:45:39.579Z,5.43
2022-12-18T07:46:41.407Z,5.20
2022-12-18T07:47:43.189Z,5.28
2022-12-18T07:48:46.193Z,5.25
2022-12-18T07:49:51.406Z,5.37
2022-12-18T07:50:54.173Z,4.82
2022-12-18T07:51:57.269Z,5.45
2022-12-18T07:52:58.995Z,5.72
2022-12-18T07:54:00.760Z,5.35
2022-12-18T07:55:03.990Z,5.22
2022-12-18T07:58:51.423Z,4.57
2022-12-18T07:59:53.210Z,4.43
2022-12-18T08:00:55.010Z,4.93
2022-12-18T08:01:57.009Z,4.53
2022-12-18T08:02:59.020Z,4.82
2022-12-18T08:04:00.923Z,4.97
2022-12-18T08:05:02.770Z,4.93
2022-12-18T08:06:06.464Z,4.80
2022-12-18T08:07:08.209Z,4.45
2022-12-18T08:08:10.165Z,5.40
2022-12-18T08:09:13.113Z,4.10
2022-12-18T08:10:14.916Z,5.50
2022-12-18T08:11:16.676Z,5.47
2022-12-18T08:12:18.429Z,4.90
2022-12-18T08:13:20.182Z,5.93
2022-12-18T08:14:21.942Z,4.83
2022-12-18T08:15:23.674Z,5.32
2022-12-18T08:16:25.940Z,5.80
2022-12-18T08:17:27.736Z,5.68
2022-12-18T08:18:29.756Z,5.75
2022-12-18T08:19:31.560Z,5.10
2022-12-18T08:20:33.384Z,5.27
2022-12-18T08:21:35.084Z,5.90
2022-12-18T08:22:40.021Z,5.68
2022-12-18T08:23:43.534Z,5.50
2022-12-18T08:24:46.259Z,5.88
2022-12-18T08:25:48.181Z,5.55
2022-12-18T08:27:06.814Z,6.37
2022-12-18T08:28:11.958Z,5.78
2022-12-18T08:29:18.560Z,6.13
2022-12-18T08:30:23.264Z,6.50
2022-12-18T08:31:26.493Z,6.55
2022-12-18T08:32:29.240Z,8.05
2022-12-18T08:33:31.177Z,7.30
2022-12-18T08:34:32.951Z,6.88
2022-12-18T08:35:44.055Z,8.13
2022-12-18T08:36:47.434Z,7.55
2022-12-18T08:37:49.192Z,8.23
2022-12-18T08:38:50.943Z,7.43
2022-12-18T08:39:52.873Z,8.43
2022-12-18T08:41:02.469Z,7.30
2022-12-18T08:42:22.927Z,7.82
2022-12-18T08:43:43.439Z,6.65
2022-12-18T08:44:45.338Z,7.53
2022-12-18T08:45:47.131Z,8.68
2022-12-18T08:46:48.950Z,8.65
2022-12-18T08:47:50.687Z,9.00
2022-12-18T08:48:53.831Z,8.52
2022-12-18T08:49:55.759Z,7.55
2022-12-18T08:51:00.981Z,8.60
2022-12-18T08:52:03.823Z,9.25
2022-12-18T08:53:05.668Z,9.15
2022-12-18T08:54:07.934Z,8.60
2022-12-18T08:55:10.435Z,8.45
2022-12-18T08:56:13.320Z,8.57
2022-12-18T08:57:15.256Z,8.40
2022-12-18T08:58:17.075Z,8.02
2022-12-18T08:59:20.160Z,8.77
2022-12-18T09:00:22.789Z,8.13
2022-12-18T09:01:24.941Z,7.67
2022-12-18T09:02:26.993Z,8.52
2022-12-18T09:03:29.221Z,8.60
2022-12-18T09:04:31.041Z,9.35
2022-12-18T09:05:32.770Z,14.27
2022-12-18T09:06:34.531Z,12.68
2022-12-18T09:07:36.242Z,9.90
2022-12-18T09:08:38.362Z,9.47
2022-12-18T09:09:40.241Z,9.15
2022-12-18T09:10:46.644Z,8.68
2022-12-18T09:11:48.405Z,8.52
2022-12-18T09:12:50.210Z,8.73
2022-12-18T09:13:53.791Z,9.07
2022-12-18T09:14:55.535Z,8.40
2022-12-18T09:15:57.385Z,8.88
2022-12-18T09:16:59.313Z,8.30
2022-12-18T09:18:01.061Z,8.15
2022-12-18T09:19:05.263Z,8.60
2022-12-18T09:20:07.947Z,7.90
2022-12-18T09:21:14.783Z,7.35
2022-12-18T09:22:16.607Z,7.78
2022-12-18T09:23:18.411Z,8.20
2022-12-18T09:24:20.221Z,7.88
2022-12-18T09:25:21.930Z,8.80
2022-12-18T09:26:25.595Z,8.02
2022-12-18T09:27:27.375Z,9.18
2022-12-18T09:28:29.377Z,8.50
2022-12-18T09:29:31.224Z,8.25
2022-12-18T09:30:35.026Z,9.30
2022-12-18T09:31:39.403Z,8.00
2022-12-18T09:32:41.133Z,8.10
2022-12-18T09:33:42.943Z,9.23
2022-12-18T09:34:45.085Z,8.38
2022-12-18T09:35:47.199Z,8.32
2022-12-18T09:36:49.396Z,8.45
2022-12-18T09:37:51.630Z,8.40
2022-12-18T09:38:54.148Z,8.65
2022-12-18T09:39:55.959Z,8.52
2022-12-18T09:41:04.214Z,8.45
2022-12-18T09:42:07.498Z,9.70
2022-12-18T09:43:24.150Z,8.95
2022-12-18T09:44:45.710Z,8.95
2022-12-18T09:45:56.112Z,8.98
2022-12-18T09:47:18.953Z,7.82
2022-12-18T09:48:26.998Z,8.18
2022-12-18T09:49:32.188Z,8.27
2022-12-18T09:50:40.289Z,8.65
2022-12-18T09:51:58.504Z,9.32
2022-12-18T09:53:06.819Z,9.32
2022-12-18T09:54:39.536Z,9.07
2022-12-18T09:55:43.959Z,8.88
2022-12-18T09:56:46.364Z,9.55
2022-12-18T09:57:54.258Z,8.98
2022-12-18T09:59:01.235Z,9.13
2022-12-18T10:00:23.499Z,9.75
2022-12-18T10:01:34.029Z,9.02
2022-12-18T10:02:41.001Z,9.23
2022-12-18T10:03:42.849Z,10.38
2022-12-18T10:04:49.210Z,8.88
2022-12-18T10:06:07.979Z,10.47
2022-12-18T10:07:23.755Z,9.45
2022-12-18T10:08:50.046Z,8.98
2022-12-18T10:10:15.654Z,9.18
2022-12-18T10:11:47.330Z,9.55
2022-12-18T10:13:04.296Z,8.55
2022-12-18T10:14:27.982Z,9.32
2022-12-18T10:15:54.474Z,9.07
2022-12-18T10:17:02.533Z,9.55
2022-12-18T10:18:43.793Z,8.52
2022-12-18T10:19:58.968Z,8.70
2022-12-18T10:21:16.629Z,9.50
2022-12-18T10:22:57.869Z,9.38
2022-12-18T10:24:25.806Z,8.43
2022-12-18T10:25:43.103Z,8.52
2022-12-18T10:26:45.559Z,10.52
2022-12-18T10:27:47.875Z,9.73
2022-12-18T10:28:49.653Z,10.35
2022-12-18T10:29:52.754Z,10.90
2022-12-18T10:30:54.624Z,10.88
2022-12-18T10:31:56.431Z,11.10
2022-12-18T10:33:02.866Z,10.05
2022-12-18T10:34:04.584Z,10.32
2022-12-18T10:35:15.988Z,10.65
2022-12-18T10:36:17.763Z,10.43
2022-12-18T10:37:22.953Z,9.88
2022-12-18T10:38:34.337Z,10.52
2022-12-18T10:39:36.076Z,10.23
2022-12-18T10:40:55.772Z,9.45
2022-12-18T10:42:19.852Z,10.55
2022-12-18T10:43:31.023Z,9.40
2022-12-18T10:44:32.745Z,10.48
2022-12-18T10:45:34.542Z,10.00
2022-12-18T10:46:36.363Z,10.75
2022-12-18T10:47:44.452Z,10.15
2022-12-18T10:48:49.489Z,10.30
2022-12-18T10:49:53.736Z,10.55
2022-12-18T10:51:12.686Z,9.57
2022-12-18T10:52:18.121Z,9.27
2022-12-18T10:53:31.570Z,10.32
2022-12-18T10:54:34.906Z,10.10
2022-12-18T10:55:45.117Z,9.82
2022-12-18T10:56:47.096Z,7.85
2022-12-18T10:57:48.895Z,10.38
2022-12-18T10:58:59.787Z,11.02
2022-12-18T11:00:24.314Z,9.52
2022-12-18T11:01:26.296Z,8.90
2022-12-18T11:02:39.553Z,9.88
2022-12-18T11:03:51.572Z,9.85
2022-12-18T11:04:54.587Z,9.50
2022-12-18T11:06:05.227Z,9.57
2022-12-18T11:07:09.166Z,8.00
2022-12-18T11:08:23.773Z,8.98
2022-12-18T11:09:32.538Z,9.10
2022-12-18T11:10:38.148Z,9.07
2022-12-18T11:11:39.899Z,8.82
2022-12-18T11:12:41.662Z,9.13
2022-12-18T11:14:18.826Z,9.55
2022-12-18T11:15:28.418Z,8.75
2022-12-18T11:16:36.902Z,9.60
2022-12-18T11:17:39.239Z,9.07
2022-12-18T11:18:41.192Z,9.07
2022-12-18T11:19:43.157Z,9.70
2022-12-18T11:20:56.968Z,10.02
2022-12-18T11:22:01.563Z,9.52
2022-12-18T11:23:13.829Z,10.05
2022-12-18T11:24:23.244Z,9.65
2022-12-18T11:25:34.445Z,9.20
2022-12-18T11:26:38.076Z,10.00
2022-12-18T11:27:41.076Z,9.77
2022-12-18T11:29:08.221Z,9.67
2022-12-18T11:30:36.107Z,9.35
2022-12-18T11:31:38.696Z,9.32
2022-12-18T11:32:44.672Z,9.88
2022-12-18T11:34:28.824Z,10.48
2022-12-18T11:35:50.378Z,10.38
2022-12-18T11:36:53.216Z,8.95
2022-12-18T11:38:01.707Z,10.23
2022-12-18T11:39:12.766Z,10.20
2022-12-18T11:40:23.539Z,9.75
2022-12-18T11:42:10.113Z,9.87
2022-12-18T11:43:35.024Z,9.93
2022-12-18T11:44:47.717Z,10.18
2022-12-18T11:45:57.180Z,9.80
2022-12-18T11:47:47.523Z,9.75
2022-12-18T11:48:59.661Z,10.00
2022-12-18T11:50:03.828Z,9.65
2022-12-18T11:51:13.042Z,10.73
2022-12-18T11:52:29.047Z,10.68
2022-12-18T11:53:31.398Z,13.00
2022-12-18T11:54:33.232Z,11.63
2022-12-18T11:55:59.404Z,10.88
2022-12-18T11:57:32.135Z,10.15
2022-12-18T11:58:48.439Z,11.30
2022-12-18T12:00:13.329Z,13.18
2022-12-18T12:01:51.791Z,12.45
2022-12-18T12:03:05.534Z,11.15
2022-12-18T12:04:26.217Z,10.13
2022-12-18T12:05:37.214Z,9.55
2022-12-18T12:06:52.936Z,10.25
2022-12-18T12:08:24.021Z,10.10
2022-12-18T12:09:44.517Z,10.05
2022-12-18T12:11:33.663Z,9.05
2022-12-18T12:12:49.027Z,8.98
2022-12-18T12:13:59.592Z,8.90
2022-12-18T12:15:07.252Z,9.65
2022-12-18T12:16:14.836Z,10.52
2022-12-18T12:17:26.440Z,9.73
2022-12-18T12:19:04.956Z,9.07
2022-12-18T12:20:20.915Z,9.02
2022-12-18T12:21:34.302Z,8.93
2022-12-18T12:22:50.631Z,9.40
2022-12-18T12:24:21.681Z,8.60
2022-12-18T12:25:42.401Z,9.38
2022-12-18T12:27:09.603Z,9.25
2022-12-18T12:28:48.478Z,8.77
2022-12-18T12:30:21.571Z,8.68
2022-12-18T12:31:38.620Z,9.43
2022-12-18T12:33:03.503Z,8.70
2022-12-18T12:34:42.426Z,9.05
2022-12-18T12:35:53.735Z,8.43
2022-12-18T12:37:16.981Z,9.55
2022-12-18T12:38:51.601Z,9.52
2022-12-18T12:39:55.680Z,8.57
2022-12-18T12:41:04.401Z,9.60
2022-12-18T12:42:34.101Z,8.95
2022-12-18T12:43:47.701Z,9.15
2022-12-18T12:44:56.471Z,9.15
2022-12-18T12:46:11.742Z,9.43
2022-12-18T12:47:31.678Z,8.73
2022-12-18T12:48:50.090Z,9.60
2022-12-18T12:49:52.183Z,9.20
2022-12-18T12:50:55.869Z,8.05
2022-12-18T12:52:21.758Z,8.85
2022-12-18T12:53:30.150Z,8.50
2022-12-18T12:54:33.593Z,9.05
2022-12-18T12:55:35.975Z,9.02
2022-12-18T12:57:04.316Z,9.02
2022-12-18T12:58:17.973Z,8.82
2022-12-18T12:59:41.100Z,9.10
2022-12-18T13:00:54.165Z,8.67
2022-12-18T13:02:02.466Z,7.72
2022-12-18T13:03:19.168Z,8.60
2022-12-18T13:04:54.172Z,7.72
2022-12-18T13:06:20.456Z,8.38
2022-12-18T13:07:47.669Z,9.10
2022-12-18T13:09:07.505Z,9.57
2022-12-18T13:10:20.514Z,8.80
2022-12-18T13:11:59.788Z,7.90
2022-12-18T13:13:17.121Z,7.68
2022-12-18T13:14:31.168Z,8.37
2022-12-18T13:15:49.392Z,8.70
2022-12-18T13:16:52.073Z,8.90
2022-12-18T13:18:28.358Z,8.10
2022-12-18T13:19:33.260Z,8.88
2022-12-18T13:20:41.096Z,8.45
2022-12-18T13:21:43.507Z,8.95
2022-12-18T13:22:48.945Z,9.25
2022-12-18T13:23:50.975Z,8.32
2022-12-18T13:24:52.811Z,8.77
2022-12-18T13:25:59.858Z,8.90
2022-12-18T13:27:21.586Z,9.07
2022-12-18T13:28:47.863Z,8.88
2022-12-18T13:29:49.657Z,8.48
2022-12-18T13:30:59.402Z,8.43
2022-12-18T13:32:02.294Z,8.25
2022-12-18T13:33:19.064Z,9.18
2022-12-18T13:34:27.630Z,8.95
2022-12-18T13:35:40.405Z,8.18
2022-12-18T13:36:42.297Z,8.85
2022-12-18T13:37:51.879Z,9.23
2022-12-18T13:39:28.635Z,9.10
2022-12-18T13:40:40.213Z,8.95
2022-12-18T13:41:42.765Z,8.60
2022-12-18T13:43:04.717Z,10.25
2022-12-18T13:44:35.900Z,9.95
2022-12-18T13:45:44.281Z,10.00
2022-12-18T13:46:50.648Z,8.82
2022-12-18T13:47:52.765Z,8.65
2022-12-18T13:49:19.290Z,9.88
2022-12-18T13:50:33.932Z,9.00
2022-12-18T13:51:43.107Z,8.98
2022-12-18T13:52:45.735Z,8.07
2022-12-18T13:53:59.545Z,9.18
2022-12-18T13:55:03.940Z,10.30
2022-12-18T13:56:07.029Z,10.50
2022-12-18T13:57:30.257Z,10.35
2022-12-18T13:58:32.496Z,9.18
2022-12-18T13:59:38.623Z,8.38
2022-12-18T14:00:44.647Z,9.90
2022-12-18T14:02:06.491Z,9.23
2022-12-18T14:03:38.097Z,8.80
2022-12-18T14:04:40.027Z,9.80
2022-12-18T14:05:46.240Z,10.02
2022-12-18T14:06:50.337Z,9.45
2022-12-18T14:07:59.411Z,9.57
2022-12-18T14:09:03.232Z,8.95
2022-12-18T14:10:45.487Z,7.25
2022-12-18T14:11:38.493Z,8.60
2022-12-18T14:13:02.009Z,9.27
2022-12-18T14:14:08.310Z,8.60
2022-12-18T14:15:27.675Z,9.20
2022-12-18T14:16:29.809Z,8.73
2022-12-18T14:17:32.932Z,8.57
2022-12-18T14:18:58.761Z,9.82
2022-12-18T14:20:18.150Z,8.38
2022-12-18T14:21:24.436Z,8.13
2022-12-18T14:22:33.271Z,8.75
2022-12-18T14:23:36.327Z,8.93
2022-12-18T14:24:38.101Z,8.77
2022-12-18T14:25:39.837Z,8.90
2022-12-18T14:26:42.350Z,8.38
2022-12-18T14:27:53.523Z,8.70
2022-12-18T14:29:01.988Z,8.07
2022-12-18T14:30:24.583Z,8.48
2022-12-18T14:31:29.122Z,8.10
2022-12-18T14:32:30.894Z,8.07
2022-12-18T14:33:32.618Z,8.00
2022-12-18T14:34:34.372Z,8.15
2022-12-18T14:35:56.460Z,8.13
2022-12-18T14:36:58.204Z,8.17
2022-12-18T14:38:21.460Z,7.70
2022-12-18T14:39:24.844Z,8.02
2022-12-18T14:40:27.446Z,7.68
2022-12-18T14:41:29.755Z,7.28
2022-12-18T14:42:31.708Z,7.75
2022-12-18T14:43:36.072Z,7.63
2022-12-18T14:44:50.700Z,7.25
2022-12-18T14:46:00.330Z,7.65
2022-12-18T14:47:02.510Z,7.80
2022-12-18T14:48:36.583Z,8.90
2022-12-18T14:49:39.256Z,8.68
2022-12-18T14:50:41.081Z,8.18
2022-12-18T14:51:49.936Z,7.82
2022-12-18T14:52:52.376Z,7.88
2022-12-18T14:54:03.028Z,8.77
2022-12-18T14:55:05.174Z,8.00
2022-12-18T14:56:46.826Z,8.38
2022-12-18T14:57:53.463Z,8.15